Time;durP1;ratioP1;P1;durP2;ratioP2;P2;SDS_P1;SDS_P2;PMS_P1;PMS_P2;Temp;Humidity;BMP_temperature;BMP_pressure;BME280_temperature;BME280_humidity;BME280_pressure;Samples;Min_cycle;Max_cycle;Signal;HPM_P1;HPM_P2
2023/05/19 00:02:14;;;;;;;9.77;3.37;;;20.20;38.90;;;;;;5046274;28;20939;-49
2023/05/19 00:04:40;;;;;;;2.87;2.57;;;20.10;39.20;;;;;;5040057;28;20235;-48
2023/05/19 00:07:10;;;;;;;3.23;2.53;;;20.10;38.80;;;;;;5037340;28;20483;-51
2023/05/19 00:09:36;;;;;;;5.23;2.97;;;20.10;38.70;;;;;;5043258;28;20443;-48
2023/05/19 00:12:02;;;;;;;5.40;2.90;;;20.00;38.70;;;;;;5052376;28;20534;-47
2023/05/19 00:14:28;;;;;;;5.37;2.93;;;19.90;39.00;;;;;;5050598;28;20521;-46
2023/05/19 00:16:57;;;;;;;6.23;2.47;;;19.90;39.20;;;;;;5054483;28;20450;-48
2023/05/19 00:19:23;;;;;;;3.10;2.73;;;19.90;39.70;;;;;;5050138;28;20899;-48
2023/05/19 00:21:48;;;;;;;5.07;2.47;;;19.80;39.20;;;;;;5053552;28;20512;-49
2023/05/19 00:24:14;;;;;;;6.30;3.73;;;19.70;39.40;;;;;;5052973;28;20450;-47
2023/05/19 00:26:40;;;;;;;4.73;3.00;;;19.70;39.50;;;;;;5048715;28;20223;-47
2023/05/19 00:29:05;;;;;;;4.37;3.17;;;19.60;39.60;;;;;;5057164;28;20632;-47
2023/05/19 00:31:32;;;;;;;4.33;2.73;;;19.60;39.80;;;;;;5052049;28;20542;-49
2023/05/19 00:33:58;;;;;;;6.37;3.10;;;19.60;40.50;;;;;;5050778;28;20192;-47
2023/05/19 00:36:24;;;;;;;4.83;2.70;;;19.50;40.10;;;;;;5045708;28;20447;-48
2023/05/19 00:38:51;;;;;;;4.70;2.73;;;19.50;40.10;;;;;;5042054;28;20287;-48
2023/05/19 00:41:16;;;;;;;6.17;3.00;;;19.50;40.40;;;;;;5044890;28;20446;-47
2023/05/19 00:43:42;;;;;;;5.17;2.73;;;19.50;40.40;;;;;;5051310;28;20443;-48
2023/05/19 00:46:09;;;;;;;3.67;2.60;;;19.50;40.20;;;;;;5051936;28;20227;-48
2023/05/19 00:48:35;;;;;;;7.13;2.73;;;19.60;40.30;;;;;;5048421;28;20279;-47
2023/05/19 00:51:03;;;;;;;3.77;2.80;;;19.50;40.20;;;;;;5046185;28;20557;-47
2023/05/19 00:53:30;;;;;;;5.20;3.10;;;19.50;40.40;;;;;;5050961;28;20648;-52
2023/05/19 00:55:57;;;;;;;5.13;2.87;;;19.60;40.70;;;;;;5041245;28;20873;-47
2023/05/19 00:58:24;;;;;;;9.07;2.87;;;19.60;40.80;;;;;;5046431;28;20622;-49
2023/05/19 01:00:50;;;;;;;2.60;2.40;;;19.60;40.90;;;;;;5053802;28;20474;-47
2023/05/19 01:03:19;;;;;;;4.70;2.70;;;19.60;41.30;;;;;;5054722;28;20477;-47
2023/05/19 01:05:44;;;;;;;5.27;2.60;;;19.60;41.60;;;;;;5048888;28;20251;-47
2023/05/19 01:08:10;;;;;;;5.90;2.37;;;19.50;41.60;;;;;;5051603;28;20435;-49
2023/05/19 01:10:36;;;;;;;5.17;2.90;;;19.50;41.50;;;;;;5053212;28;20235;-48
2023/05/19 01:13:03;;;;;;;3.50;2.50;;;19.50;41.70;;;;;;5044476;28;20442;-49
2023/05/19 01:15:32;;;;;;;5.60;3.90;;;19.50;41.70;;;;;;5039912;28;20455;-47
2023/05/19 01:18:10;;;;;;;8.53;2.77;;;19.40;41.70;;;;;;5049441;28;20451;-47
2023/05/19 01:20:45;;;;;;;4.47;2.70;;;19.50;41.50;;;;;;5048033;28;20458;-47
2023/05/19 01:23:39;;;;;;;4.83;3.30;;;19.50;41.10;;;;;;5048575;28;20574;-46
2023/05/19 01:26:39;;;;;;;3.87;2.70;;;19.50;40.90;;;;;;5045019;28;20486;-46
2023/05/19 01:29:39;;;;;;;6.27;2.73;;;19.50;41.00;;;;;;5043788;28;20450;-48
2023/05/19 01:32:06;;;;;;;4.83;2.97;;;19.50;41.00;;;;;;5043033;28;21101;-47
2023/05/19 01:34:33;;;;;;;4.30;3.30;;;19.50;41.20;;;;;;5042275;28;20495;-48
2023/05/19 01:37:00;;;;;;;4.63;2.87;;;19.50;41.10;;;;;;5043203;28;20444;-50
2023/05/19 01:39:26;;;;;;;3.90;2.83;;;19.50;41.20;;;;;;5040303;28;20498;-46
2023/05/19 01:41:53;;;;;;;4.20;3.00;;;19.50;41.70;;;;;;5041667;28;20443;-48
2023/05/19 01:44:20;;;;;;;3.10;2.27;;;19.60;42.80;;;;;;5049928;28;20493;-47
2023/05/19 01:46:47;;;;;;;6.73;3.10;;;19.50;42.10;;;;;;5041347;28;21000;-47
2023/05/19 01:49:13;;;;;;;6.27;2.87;;;19.40;42.10;;;;;;5038175;28;20435;-46
2023/05/19 01:51:39;;;;;;;4.63;2.80;;;19.40;42.20;;;;;;5040242;28;20439;-47
2023/05/19 01:54:05;;;;;;;6.00;3.07;;;19.40;42.60;;;;;;5044266;28;20807;-50
2023/05/19 01:56:45;;;;;;;4.00;2.60;;;19.40;42.80;;;;;;5045951;28;20442;-47
2023/05/19 01:59:25;;;;;;;4.00;2.37;;;19.40;43.20;;;;;;5046860;28;20232;-46
2023/05/19 02:01:53;;;;;;;5.20;3.07;;;19.40;43.40;;;;;;5046505;28;21226;-51
2023/05/19 02:04:45;;;;;;;3.10;2.67;;;19.40;43.20;;;;;;5050585;28;20846;-47
2023/05/19 02:07:29;;;;;;;6.43;3.00;;;19.40;43.10;;;;;;5039807;28;20580;-48
2023/05/19 02:09:54;;;;;;;10.33;3.73;;;19.40;42.60;;;;;;5042475;28;20466;-47
2023/05/19 02:12:36;;;;;;;5.27;3.33;;;19.40;42.20;;;;;;5042871;28;20447;-47
2023/05/19 02:15:04;;;;;;;6.03;2.83;;;19.40;42.20;;;;;;5040097;28;20197;-47
2023/05/19 02:17:32;;;;;;;6.83;2.63;;;19.40;42.30;;;;;;5042287;28;20458;-47
2023/05/19 02:19:57;;;;;;;8.13;3.13;;;19.40;42.40;;;;;;5048296;28;20434;-47
2023/05/19 02:22:23;;;;;;;3.20;2.63;;;19.50;42.60;;;;;;5050349;28;20431;-47
2023/05/19 02:24:50;;;;;;;4.37;3.00;;;19.50;42.70;;;;;;5050827;28;20276;-47
2023/05/19 02:27:16;;;;;;;7.20;2.83;;;19.50;42.90;;;;;;5047351;28;20228;-48
2023/05/19 02:29:42;;;;;;;4.93;2.90;;;19.60;43.10;;;;;;5047327;28;20439;-47
2023/05/19 02:32:07;;;;;;;3.53;2.63;;;19.60;43.00;;;;;;5049399;28;20458;-46
2023/05/19 02:34:33;;;;;;;3.30;2.77;;;19.60;42.80;;;;;;5047328;28;20716;-46
2023/05/19 02:36:58;;;;;;;8.27;3.73;;;19.60;42.60;;;;;;5035218;28;20201;-46
2023/05/19 02:39:25;;;;;;;7.77;2.97;;;19.60;42.70;;;;;;5040763;28;20566;-45
2023/05/19 02:41:50;;;;;;;4.63;3.20;;;19.60;42.90;;;;;;5042863;28;20390;-47
2023/05/19 02:44:16;;;;;;;9.03;2.50;;;19.60;43.10;;;;;;5043727;28;20925;-48
2023/05/19 02:46:42;;;;;;;5.37;2.67;;;19.60;43.00;;;;;;5051852;28;20757;-47
2023/05/19 02:49:07;;;;;;;6.07;3.17;;;19.60;43.20;;;;;;5051894;28;20193;-47
2023/05/19 02:51:33;;;;;;;4.70;2.60;;;19.60;43.10;;;;;;5047331;28;20239;-47
2023/05/19 02:53:58;;;;;;;7.47;3.37;;;19.60;43.00;;;;;;5049069;28;20201;-46
2023/05/19 02:56:25;;;;;;;5.07;3.17;;;19.60;43.30;;;;;;5048112;28;20199;-46
2023/05/19 02:58:51;;;;;;;3.60;2.90;;;19.60;43.50;;;;;;5050332;28;20243;-47
2023/05/19 03:01:17;;;;;;;4.60;2.83;;;19.60;43.50;;;;;;5043577;28;20797;-46
2023/05/19 03:03:42;;;;;;;5.63;2.60;;;19.60;43.30;;;;;;5049111;28;20441;-48
2023/05/19 03:06:08;;;;;;;3.80;3.00;;;19.60;43.30;;;;;;5045562;28;20228;-51
2023/05/19 03:08:34;;;;;;;5.10;2.73;;;19.60;43.40;;;;;;5038679;28;20188;-48
2023/05/19 03:11:01;;;;;;;4.73;3.07;;;19.50;43.70;;;;;;5047717;28;20246;-47
2023/05/19 03:13:26;;;;;;;4.57;3.40;;;19.50;44.10;;;;;;5050174;28;20454;-50
2023/05/19 03:15:52;;;;;;;6.53;3.17;;;19.50;43.90;;;;;;5051115;28;20435;-47
2023/05/19 03:18:17;;;;;;;3.47;2.63;;;19.50;43.90;;;;;;5051122;28;20246;-47
2023/05/19 03:20:43;;;;;;;3.57;2.50;;;19.50;44.50;;;;;;5051080;28;20271;-47
2023/05/19 03:23:09;;;;;;;6.27;3.33;;;19.50;44.10;;;;;;5048700;28;20246;-50
2023/05/19 03:25:35;;;;;;;6.73;2.87;;;19.50;44.10;;;;;;5042458;28;20247;-48
2023/05/19 03:28:00;;;;;;;5.20;2.97;;;19.40;43.90;;;;;;5046767;28;20220;-48
2023/05/19 03:30:26;;;;;;;5.80;3.27;;;19.40;44.10;;;;;;5031894;28;20189;-49
2023/05/19 03:32:52;;;;;;;3.83;2.63;;;19.40;44.20;;;;;;5033592;28;21548;-48
2023/05/19 03:35:17;;;;;;;3.60;2.73;;;19.40;43.90;;;;;;5036350;28;20318;-53
2023/05/19 03:37:43;;;;;;;4.40;3.13;;;19.40;43.80;;;;;;5039082;28;20195;-49
2023/05/19 03:40:09;;;;;;;6.90;3.67;;;19.40;43.90;;;;;;5045826;28;20192;-48
2023/05/19 03:42:35;;;;;;;5.40;2.73;;;19.40;44.10;;;;;;5039522;28;20185;-47
2023/05/19 03:45:01;;;;;;;8.37;3.17;;;19.30;44.20;;;;;;5034354;28;20462;-49
2023/05/19 03:47:26;;;;;;;6.67;2.97;;;19.30;44.40;;;;;;5036654;28;20201;-49
2023/05/19 03:49:52;;;;;;;6.20;3.33;;;19.30;44.60;;;;;;5036806;28;21017;-51
2023/05/19 03:52:18;;;;;;;7.40;2.80;;;19.30;44.60;;;;;;5046685;28;20489;-52
2023/05/19 03:54:43;;;;;;;3.60;2.77;;;19.30;44.50;;;;;;5038607;28;20189;-47
2023/05/19 03:57:11;;;;;;;5.93;2.70;;;19.30;44.60;;;;;;5045867;28;20287;-47
2023/05/19 03:59:37;;;;;;;4.33;3.10;;;19.30;44.70;;;;;;5028987;28;20661;-47
2023/05/19 04:02:03;;;;;;;3.20;2.73;;;19.30;44.70;;;;;;5044490;28;20518;-51
2023/05/19 04:04:28;;;;;;;4.30;3.20;;;19.30;44.50;;;;;;5037470;28;20196;-48
2023/05/19 04:06:54;;;;;;;4.07;2.83;;;19.20;44.50;;;;;;5030391;28;20316;-50
2023/05/19 04:09:22;;;;;;;5.00;3.33;;;19.20;44.60;;;;;;5047849;28;20553;-50
2023/05/19 04:11:48;;;;;;;5.30;2.90;;;19.20;44.60;;;;;;5035819;28;21030;-51
2023/05/19 04:14:13;;;;;;;5.87;3.20;;;19.10;44.60;;;;;;5043484;28;20435;-47
2023/05/19 04:16:40;;;;;;;4.67;2.87;;;19.00;44.80;;;;;;5039869;28;20683;-47
2023/05/19 04:19:06;;;;;;;3.37;3.07;;;19.00;44.80;;;;;;5044711;28;20609;-50
2023/05/19 04:21:31;;;;;;;5.60;3.37;;;19.00;45.00;;;;;;5041615;28;20452;-51
2023/05/19 04:24:00;;;;;;;4.80;3.30;;;18.90;45.20;;;;;;5035393;28;20192;-49
2023/05/19 04:26:29;;;;;;;4.17;2.83;;;18.90;45.50;;;;;;5034889;28;20263;-51
2023/05/19 04:28:55;;;;;;;4.27;3.03;;;18.90;45.70;;;;;;5038174;28;20784;-50
2023/05/19 04:31:21;;;;;;;4.77;3.00;;;18.90;45.50;;;;;;5043809;28;20450;-48
2023/05/19 04:33:49;;;;;;;4.70;2.87;;;18.80;45.40;;;;;;5048040;28;20266;-47
2023/05/19 04:36:17;;;;;;;7.00;3.10;;;18.80;45.60;;;;;;5037791;28;20192;-48
2023/05/19 04:38:44;;;;;;;7.70;2.80;;;18.80;45.80;;;;;;5045031;28;20451;-51
2023/05/19 04:41:11;;;;;;;6.97;3.23;;;18.80;46.20;;;;;;5032891;28;20505;-52
2023/05/19 04:43:43;;;;;;;6.30;3.10;;;18.90;46.60;;;;;;5032984;28;20531;-49
2023/05/19 04:46:12;;;;;;;3.53;2.80;;;18.90;46.50;;;;;;5038049;28;20486;-50
2023/05/19 04:48:38;;;;;;;4.13;2.80;;;19.00;46.20;;;;;;5033721;28;20442;-51
2023/05/19 04:51:05;;;;;;;4.93;2.73;;;19.20;46.00;;;;;;5036009;28;20508;-46
2023/05/19 04:53:30;;;;;;;5.80;3.37;;;19.20;45.50;;;;;;5040881;28;20466;-51
2023/05/19 04:55:57;;;;;;;5.53;3.20;;;19.30;45.30;;;;;;5049085;28;20941;-51
2023/05/19 04:58:26;;;;;;;3.93;3.50;;;19.30;44.90;;;;;;5052116;28;20233;-48
2023/05/19 05:00:54;;;;;;;5.13;2.97;;;19.30;45.20;;;;;;5046684;28;20568;-46
2023/05/19 05:03:21;;;;;;;3.20;2.80;;;19.30;45.40;;;;;;5046465;28;20449;-46
2023/05/19 05:05:47;;;;;;;4.90;3.40;;;19.40;45.40;;;;;;5044311;28;20509;-51
2023/05/19 05:08:15;;;;;;;6.40;3.53;;;19.40;45.20;;;;;;5050890;28;20442;-51
2023/05/19 05:10:40;;;;;;;4.13;3.73;;;19.40;45.30;;;;;;5042969;28;21371;-46
2023/05/19 05:13:06;;;;;;;5.00;3.53;;;19.40;45.20;;;;;;5049737;28;20517;-51
2023/05/19 05:15:34;;;;;;;5.00;3.90;;;19.40;45.20;;;;;;5053429;28;20208;-50
2023/05/19 05:18:00;;;;;;;6.97;3.60;;;19.40;45.30;;;;;;5048049;28;20447;-51
2023/05/19 05:20:26;;;;;;;3.50;3.17;;;19.40;45.80;;;;;;5048660;28;20434;-47
2023/05/19 05:22:52;;;;;;;5.93;3.37;;;19.40;45.60;;;;;;5046928;28;20435;-50
2023/05/19 05:25:18;;;;;;;6.00;4.00;;;19.40;45.50;;;;;;5042455;28;20466;-49
2023/05/19 05:27:44;;;;;;;6.80;3.17;;;19.40;45.40;;;;;;5048548;28;20242;-47
2023/05/19 05:30:10;;;;;;;9.80;3.80;;;19.00;46.30;;;;;;5035732;28;20440;-47
2023/05/19 05:32:35;;;;;;;5.93;3.60;;;19.00;46.40;;;;;;5041504;28;20193;-51
2023/05/19 05:35:01;;;;;;;5.17;3.80;;;19.00;46.00;;;;;;5041649;28;20188;-50
2023/05/19 05:37:27;;;;;;;6.30;3.23;;;19.10;45.80;;;;;;5046099;28;20193;-49
2023/05/19 05:39:52;;;;;;;7.10;3.60;;;19.20;45.70;;;;;;5048645;28;20213;-51
2023/05/19 05:42:19;;;;;;;5.73;3.60;;;19.20;45.70;;;;;;5040290;28;20250;-50
2023/05/19 05:44:44;;;;;;;6.47;3.43;;;19.20;45.60;;;;;;5043854;28;20480;-52
2023/05/19 05:47:11;;;;;;;6.43;3.03;;;19.30;45.70;;;;;;5050309;28;21349;-50
2023/05/19 05:49:37;;;;;;;4.03;3.10;;;19.30;45.70;;;;;;5051269;28;20601;-47
2023/05/19 05:52:04;;;;;;;5.40;3.03;;;19.20;45.30;;;;;;5051450;28;20427;-50
2023/05/19 05:54:30;;;;;;;5.23;3.10;;;19.30;45.40;;;;;;5044882;28;20511;-46
2023/05/19 05:56:56;;;;;;;5.50;3.00;;;19.40;45.30;;;;;;5038959;28;20894;-49
2023/05/19 05:59:21;;;;;;;9.00;3.83;;;19.50;45.10;;;;;;5046190;28;20472;-51
2023/05/19 06:01:47;;;;;;;3.57;3.27;;;19.60;45.20;;;;;;5052787;28;20937;-52
2023/05/19 06:04:12;;;;;;;5.63;3.20;;;19.70;45.50;;;;;;5047597;28;20251;-50
2023/05/19 06:06:38;;;;;;;3.60;2.80;;;19.70;45.00;;;;;;5035771;28;20278;-50
2023/05/19 06:09:04;;;;;;;7.70;3.20;;;19.80;45.10;;;;;;5033429;28;20272;-48
2023/05/19 06:11:29;;;;;;;8.20;3.50;;;19.90;44.90;;;;;;5043405;28;20320;-51
2023/05/19 06:13:55;;;;;;;7.63;4.40;;;20.00;44.80;;;;;;5052000;28;20224;-51
2023/05/19 06:16:21;;;;;;;9.37;3.50;;;20.10;44.20;;;;;;5052336;28;20641;-48
2023/05/19 06:18:46;;;;;;;5.03;3.27;;;20.20;44.00;;;;;;5046810;28;20185;-48
2023/05/19 06:21:12;;;;;;;5.37;3.00;;;20.20;44.10;;;;;;5033430;28;20633;-51
2023/05/19 06:23:39;;;;;;;4.63;3.40;;;20.30;43.70;;;;;;5040983;28;20192;-51
2023/05/19 06:26:05;;;;;;;5.07;2.77;;;20.40;43.60;;;;;;5047430;28;20661;-49
2023/05/19 06:28:31;;;;;;;7.17;3.13;;;20.10;44.10;;;;;;5044927;28;20463;-46
2023/05/19 06:30:57;;;;;;;3.70;3.10;;;20.20;44.20;;;;;;5046962;28;20192;-47
2023/05/19 06:33:23;;;;;;;7.03;3.30;;;20.40;44.40;;;;;;5049905;28;20442;-51
2023/05/19 06:35:48;;;;;;;12.00;3.53;;;20.40;43.50;;;;;;5048360;28;20561;-49
2023/05/19 06:38:14;;;;;;;5.73;3.50;;;20.40;43.30;;;;;;5044128;28;20453;-51
2023/05/19 06:40:40;;;;;;;6.00;3.20;;;20.30;44.20;;;;;;5050207;28;20534;-49
2023/05/19 06:43:05;;;;;;;4.93;2.93;;;20.20;44.30;;;;;;5049538;28;20192;-50
2023/05/19 06:45:31;;;;;;;7.70;3.90;;;20.40;44.90;;;;;;5052036;28;20224;-51
2023/05/19 06:47:57;;;;;;;6.00;3.07;;;20.50;45.20;;;;;;5051602;28;20238;-51
2023/05/19 06:50:23;;;;;;;6.67;3.20;;;20.50;44.20;;;;;;5048614;28;20460;-51
2023/05/19 06:52:49;;;;;;;4.07;2.87;;;20.60;43.70;;;;;;5049012;28;20226;-51
2023/05/19 06:55:15;;;;;;;6.00;3.10;;;20.50;43.10;;;;;;5049942;28;20443;-47
2023/05/19 06:57:40;;;;;;;5.90;3.20;;;20.40;42.90;;;;;;5051187;28;21094;-49
2023/05/19 07:00:11;;;;;;;6.73;3.70;;;20.50;43.30;;;;;;5047981;28;20674;-51
2023/05/19 07:02:37;;;;;;;7.03;3.47;;;20.50;43.70;;;;;;5047887;28;20215;-50
2023/05/19 07:05:03;;;;;;;8.10;3.40;;;20.50;43.70;;;;;;5044664;28;20446;-50
2023/05/19 07:07:28;;;;;;;9.47;3.67;;;20.50;43.40;;;;;;5045097;28;20501;-49
2023/05/19 07:09:54;;;;;;;6.00;3.40;;;20.50;43.60;;;;;;5042969;28;20441;-52
2023/05/19 07:12:19;;;;;;;8.20;3.23;;;20.50;44.00;;;;;;5044469;28;20648;-51
2023/05/19 07:14:45;;;;;;;6.33;3.13;;;20.30;43.60;;;;;;5042417;28;20195;-52
2023/05/19 07:17:11;;;;;;;6.60;4.00;;;20.10;43.80;;;;;;5043460;28;20355;-51
2023/05/19 07:19:37;;;;;;;5.10;3.10;;;20.10;43.90;;;;;;5044187;28;20268;-52
2023/05/19 07:22:02;;;;;;;5.33;3.27;;;20.30;44.10;;;;;;5043081;28;20554;-51
2023/05/19 07:24:29;;;;;;;6.57;3.60;;;20.50;44.60;;;;;;5039938;28;20200;-51
2023/05/19 07:26:54;;;;;;;5.33;3.13;;;20.40;42.90;;;;;;5051075;28;20233;-50
2023/05/19 07:29:20;;;;;;;5.90;2.90;;;20.30;43.00;;;;;;5051262;28;20521;-50
2023/05/19 07:31:46;;;;;;;8.00;4.03;;;20.40;43.10;;;;;;5043796;28;20197;-52
2023/05/19 07:34:11;;;;;;;8.23;3.30;;;20.30;43.50;;;;;;5050583;28;20556;-51
2023/05/19 07:36:37;;;;;;;6.80;3.50;;;20.20;43.30;;;;;;5049732;28;20188;-50
2023/05/19 07:39:02;;;;;;;4.77;3.40;;;20.00;42.90;;;;;;5050978;28;20204;-51
2023/05/19 07:41:28;;;;;;;6.67;4.20;;;19.90;43.10;;;;;;5049102;28;20189;-50
2023/05/19 07:43:54;;;;;;;6.73;3.33;;;20.00;43.80;;;;;;5043332;28;20238;-52
2023/05/19 07:46:20;;;;;;;5.43;3.00;;;19.90;43.20;;;;;;5041095;28;20303;-50
2023/05/19 07:48:46;;;;;;;7.03;3.27;;;20.00;43.70;;;;;;5032561;28;20185;-51
2023/05/19 07:51:12;;;;;;;6.30;3.17;;;19.80;43.10;;;;;;5032634;28;20931;-51
2023/05/19 07:53:37;;;;;;;5.67;2.93;;;19.80;43.10;;;;;;5049861;28;20213;-50
2023/05/19 07:56:03;;;;;;;4.57;3.20;;;19.90;43.20;;;;;;5049271;28;20950;-49
2023/05/19 07:58:29;;;;;;;8.07;4.30;;;20.00;43.10;;;;;;5049216;28;20278;-51
2023/05/19 08:00:59;;;;;;;7.27;3.30;;;20.10;42.90;;;;;;5050895;28;20197;-51
2023/05/19 08:03:25;;;;;;;6.47;3.00;;;20.10;43.10;;;;;;5044553;28;20450;-52
2023/05/19 08:05:51;;;;;;;6.87;3.60;;;20.20;43.40;;;;;;5042727;28;20528;-52
2023/05/19 08:08:18;;;;;;;5.67;3.67;;;20.30;43.70;;;;;;5040372;28;20923;-51
2023/05/19 08:10:45;;;;;;;10.50;3.83;;;20.20;42.90;;;;;;5029764;28;20570;-46
2023/05/19 08:13:11;;;;;;;10.97;3.20;;;20.20;42.90;;;;;;5031143;28;20476;-46
2023/05/19 08:15:37;;;;;;;5.30;3.63;;;20.20;42.90;;;;;;5042480;28;20463;-46
2023/05/19 08:18:04;;;;;;;6.03;3.30;;;20.00;42.60;;;;;;5041246;28;20599;-51
2023/05/19 08:20:30;;;;;;;7.00;3.33;;;19.90;42.80;;;;;;5042094;28;20817;-46
2023/05/19 08:22:55;;;;;;;5.57;3.33;;;19.80;43.30;;;;;;5049125;28;20423;-49
2023/05/19 08:25:21;;;;;;;3.97;3.17;;;19.90;43.60;;;;;;5040619;28;20814;-47
2023/05/19 08:27:46;;;;;;;5.33;3.60;;;19.90;43.20;;;;;;5050132;28;20192;-51
2023/05/19 08:30:12;;;;;;;7.00;3.43;;;19.90;43.50;;;;;;5050754;28;20624;-48
2023/05/19 08:32:38;;;;;;;6.90;3.17;;;20.10;43.60;;;;;;5052480;28;20200;-47
2023/05/19 08:35:04;;;;;;;3.90;2.90;;;20.20;43.30;;;;;;5047568;28;20439;-48
2023/05/19 08:37:29;;;;;;;4.90;3.00;;;20.10;42.70;;;;;;5050612;28;20254;-47
2023/05/19 08:39:56;;;;;;;5.43;2.90;;;20.20;42.70;;;;;;5051791;28;20197;-47
2023/05/19 08:42:22;;;;;;;4.47;2.90;;;20.30;43.30;;;;;;5044529;28;20286;-48
2023/05/19 08:44:47;;;;;;;4.37;3.37;;;20.20;43.00;;;;;;5047265;28;20486;-48
2023/05/19 08:47:14;;;;;;;4.17;3.13;;;20.10;42.80;;;;;;5044485;28;20879;-46
2023/05/19 08:49:44;;;;;;;3.87;3.00;;;20.00;42.70;;;;;;5048604;28;20977;-49
2023/05/19 08:52:34;;;;;;;5.80;2.90;;;19.90;43.50;;;;;;5048920;28;21311;-50
2023/05/19 08:55:24;;;;;;;4.53;3.20;;;19.80;43.80;;;;;;5047008;28;20455;-52
2023/05/19 08:57:51;;;;;;;7.10;3.30;;;19.60;43.90;;;;;;5044460;28;20451;-54
2023/05/19 09:00:18;;;;;;;4.63;2.90;;;19.70;45.00;;;;;;5047917;28;20445;-47
2023/05/19 09:02:46;;;;;;;9.33;3.30;;;19.90;45.00;;;;;;5039394;28;20873;-48
2023/05/19 09:05:12;;;;;;;4.90;3.20;;;19.90;44.90;;;;;;5044420;28;20458;-48
2023/05/19 09:07:41;;;;;;;7.80;4.20;;;20.00;44.40;;;;;;5045319;28;20423;-51
2023/05/19 09:10:07;;;;;;;3.93;3.03;;;20.00;44.30;;;;;;5045326;28;20614;-48
2023/05/19 09:12:33;;;;;;;7.77;4.53;;;19.90;43.80;;;;;;5045067;28;20457;-50
2023/05/19 09:14:59;;;;;;;4.30;3.03;;;19.90;43.80;;;;;;5043112;28;20550;-49
2023/05/19 09:17:25;;;;;;;8.60;4.30;;;20.00;44.20;;;;;;5038311;28;20207;-49
2023/05/19 09:19:51;;;;;;;6.13;2.97;;;20.00;43.50;;;;;;5053155;28;20443;-50
2023/05/19 09:22:20;;;;;;;5.70;3.73;;;20.30;44.20;;;;;;5051757;28;20651;-50
2023/05/19 09:24:47;;;;;;;6.73;3.40;;;20.40;43.30;;;;;;5049321;28;20185;-49
2023/05/19 09:27:22;;;;;;;5.87;3.20;;;20.30;42.90;;;;;;5051155;28;20493;-50
2023/05/19 09:29:48;;;;;;;6.47;3.10;;;20.10;43.20;;;;;;5044374;28;20530;-53
2023/05/19 09:32:24;;;;;;;5.50;3.40;;;20.30;43.20;;;;;;5041795;28;20504;-51
2023/05/19 09:34:49;;;;;;;7.00;3.57;;;20.50;43.40;;;;;;5047831;28;20446;-53
2023/05/19 09:37:15;;;;;;;6.00;3.00;;;20.70;43.70;;;;;;5050196;28;20459;-53
2023/05/19 09:39:48;;;;;;;6.63;3.80;;;20.80;44.20;;;;;;5048670;28;20196;-50
2023/05/19 09:42:13;;;;;;;3.70;2.90;;;20.60;42.90;;;;;;5046855;28;20195;-52
2023/05/19 09:44:41;;;;;;;4.97;3.50;;;20.60;42.90;;;;;;5045171;28;20439;-50
2023/05/19 09:47:08;;;;;;;7.00;3.27;;;20.70;43.20;;;;;;5038899;28;20221;-50
2023/05/19 09:49:34;;;;;;;3.67;3.33;;;20.90;43.20;;;;;;5047430;28;20447;-50
2023/05/19 09:52:02;;;;;;;6.43;3.23;;;20.90;43.50;;;;;;5049681;28;20496;-54
2023/05/19 09:54:30;;;;;;;4.20;3.20;;;20.70;43.00;;;;;;5049505;28;20189;-51
2023/05/19 09:56:57;;;;;;;5.13;2.87;;;20.60;42.60;;;;;;5050488;28;20866;-49
2023/05/19 09:59:25;;;;;;;5.10;3.10;;;20.70;42.40;;;;;;5038493;28;20497;-53
2023/05/19 10:01:57;;;;;;;5.67;3.37;;;20.70;42.70;;;;;;5049377;28;20456;-50
2023/05/19 10:04:25;;;;;;;5.70;3.43;;;20.90;42.60;;;;;;5049397;28;20438;-51
2023/05/19 10:06:52;;;;;;;3.17;2.90;;;20.90;42.30;;;;;;5040784;28;20498;-54
2023/05/19 10:09:23;;;;;;;4.10;3.20;;;21.00;43.60;;;;;;5034105;28;20487;-52
2023/05/19 10:11:52;;;;;;;5.47;4.10;;;21.00;42.70;;;;;;5052815;28;20842;-52
2023/05/19 10:14:23;;;;;;;3.63;3.00;;;20.90;43.10;;;;;;5041557;28;20444;-52
2023/05/19 10:16:51;;;;;;;4.77;2.80;;;20.90;43.00;;;;;;5049360;28;20471;-48
2023/05/19 10:19:21;;;;;;;11.20;4.23;;;20.90;42.60;;;;;;5050280;28;20962;-48
2023/05/19 10:21:48;;;;;;;4.40;3.27;;;20.80;43.20;;;;;;5049698;28;20447;-50
2023/05/19 10:24:13;;;;;;;4.30;3.30;;;20.80;43.00;;;;;;5052224;28;20995;-52
2023/05/19 10:26:52;;;;;;;6.27;3.87;;;20.70;42.60;;;;;;5045102;28;20486;-52
2023/05/19 10:29:26;;;;;;;5.23;3.00;;;20.60;43.40;;;;;;5049609;28;20192;-51
2023/05/19 10:31:53;;;;;;;4.20;3.37;;;20.80;43.50;;;;;;5044591;28;20472;-50
2023/05/19 10:34:20;;;;;;;8.40;3.30;;;21.00;44.40;;;;;;5046913;28;20538;-54
2023/05/19 10:37:10;;;;;;;3.50;3.20;;;20.80;44.30;;;;;;5049420;28;20922;-51
2023/05/19 10:39:40;;;;;;;5.70;3.50;;;20.70;42.90;;;;;;5048454;28;20875;-51
2023/05/19 10:42:28;;;;;;;3.57;2.87;;;20.60;42.60;;;;;;5046533;28;20970;-52
2023/05/19 10:45:15;;;;;;;6.03;2.50;;;20.80;42.70;;;;;;5048164;28;20454;-52
2023/05/19 10:47:41;;;;;;;5.07;2.80;;;21.00;43.40;;;;;;5045633;28;20447;-52
2023/05/19 10:50:07;;;;;;;5.57;3.23;;;21.10;43.10;;;;;;5048369;28;20511;-50
2023/05/19 10:52:37;;;;;;;4.10;3.27;;;21.10;44.30;;;;;;5046117;28;20236;-48
2023/05/19 10:55:03;;;;;;;9.50;3.70;;;21.40;44.50;;;;;;5048718;28;20439;-52
2023/05/19 10:57:32;;;;;;;5.10;3.80;;;21.60;43.50;;;;;;5047078;28;20451;-51
2023/05/19 11:00:09;;;;;;;4.17;3.00;;;21.70;42.30;;;;;;5051003;28;20474;-54
2023/05/19 11:02:40;;;;;;;4.30;2.80;;;21.60;43.30;;;;;;5044835;28;20491;-49
2023/05/19 11:05:11;;;;;;;6.60;3.27;;;21.70;41.90;;;;;;5049689;28;20455;-52
2023/05/19 11:07:41;;;;;;;4.00;2.50;;;21.60;43.20;;;;;;5049849;28;20451;-52
2023/05/19 11:10:08;;;;;;;4.37;3.33;;;21.70;42.80;;;;;;5050320;28;20482;-51
2023/05/19 11:12:44;;;;;;;7.87;3.07;;;21.80;43.20;;;;;;5049650;28;20526;-49
2023/05/19 11:15:14;;;;;;;5.10;3.80;;;21.80;42.60;;;;;;5040286;28;20439;-49
2023/05/19 11:17:43;;;;;;;5.60;2.80;;;21.60;43.70;;;;;;5050796;28;20451;-49
2023/05/19 11:20:25;;;;;;;5.67;3.07;;;21.50;43.90;;;;;;5050663;28;22176;-50
2023/05/19 11:23:08;;;;;;;6.07;3.77;;;21.60;43.60;;;;;;5045350;28;20435;-52
2023/05/19 11:25:52;;;;;;;4.57;3.30;;;21.90;43.60;;;;;;5043911;28;20511;-50
2023/05/19 11:28:24;;;;;;;4.20;3.00;;;22.10;42.60;;;;;;5048635;28;20521;-49
2023/05/19 11:30:52;;;;;;;4.13;3.07;;;22.10;42.10;;;;;;5051733;28;20447;-49
2023/05/19 11:33:19;;;;;;;6.13;3.63;;;21.90;42.00;;;;;;5044303;28;20455;-51
2023/05/19 11:35:49;;;;;;;6.50;4.07;;;22.00;42.70;;;;;;5046359;28;20543;-52
2023/05/19 11:38:17;;;;;;;2.60;2.40;;;22.00;42.80;;;;;;5042774;28;20451;-49
2023/05/19 11:40:43;;;;;;;9.13;3.30;;;22.20;44.00;;;;;;5049756;28;21021;-50
2023/05/19 11:43:09;;;;;;;5.67;3.30;;;22.40;43.40;;;;;;5043479;28;20454;-51
2023/05/19 11:45:34;;;;;;;5.00;3.60;;;22.60;42.40;;;;;;5044651;28;21020;-51
2023/05/19 11:48:04;;;;;;;4.80;4.00;;;22.40;40.50;;;;;;5046126;28;20234;-49
2023/05/19 11:50:30;;;;;;;9.23;3.70;;;22.10;40.60;;;;;;5049654;28;20688;-52
2023/05/19 11:52:58;;;;;;;4.80;3.10;;;22.00;41.70;;;;;;5046013;28;20814;-50
2023/05/19 11:55:24;;;;;;;5.87;3.10;;;21.80;42.60;;;;;;5038728;28;20454;-49
2023/05/19 11:58:00;;;;;;;6.83;3.40;;;21.80;42.80;;;;;;5047174;28;20443;-50
2023/05/19 12:00:27;;;;;;;7.20;3.53;;;21.80;42.80;;;;;;5049882;28;20331;-53
2023/05/19 12:02:52;;;;;;;8.57;3.57;;;21.90;42.60;;;;;;5041694;28;20494;-49
2023/05/19 12:05:25;;;;;;;6.20;3.17;;;22.00;41.70;;;;;;5044032;28;20950;-50
2023/05/19 12:07:51;;;;;;;5.10;3.27;;;21.90;41.60;;;;;;5043934;28;20189;-48
2023/05/19 12:10:22;;;;;;;4.73;3.00;;;21.80;41.30;;;;;;5039280;28;20602;-47
2023/05/19 12:12:50;;;;;;;5.03;3.57;;;22.00;41.40;;;;;;5044234;28;20541;-47
2023/05/19 12:15:19;;;;;;;8.83;3.83;;;22.10;41.00;;;;;;5045054;28;20477;-47
2023/05/19 12:17:47;;;;;;;4.93;3.43;;;22.00;40.70;;;;;;5049412;28;20439;-47
2023/05/19 12:20:13;;;;;;;5.27;3.73;;;21.70;41.40;;;;;;5044781;28;20470;-47
2023/05/19 12:22:39;;;;;;;4.43;2.83;;;21.80;41.80;;;;;;5049874;28;20434;-49
2023/05/19 12:25:05;;;;;;;5.53;3.10;;;21.70;41.60;;;;;;5045903;28;20434;-49
2023/05/19 12:27:38;;;;;;;7.73;3.33;;;21.70;41.20;;;;;;5045050;28;20224;-47
2023/05/19 12:30:04;;;;;;;6.07;3.60;;;21.80;41.30;;;;;;5050892;28;20189;-50
2023/05/19 12:32:34;;;;;;;5.97;3.10;;;21.70;40.70;;;;;;5049895;28;20981;-49
2023/05/19 12:35:02;;;;;;;14.93;4.27;;;21.70;41.30;;;;;;5048531;28;20537;-48
2023/05/19 12:37:28;;;;;;;16.97;4.23;;;21.90;41.60;;;;;;5047385;28;20487;-47
2023/05/19 12:39:55;;;;;;;5.77;3.80;;;22.20;42.20;;;;;;5032096;28;20450;-47
2023/05/19 12:42:22;;;;;;;8.33;3.90;;;22.40;41.40;;;;;;5048279;28;20439;-48
2023/05/19 12:44:50;;;;;;;13.03;3.60;;;22.50;40.70;;;;;;5043266;28;20452;-47
2023/05/19 12:47:18;;;;;;;6.77;4.10;;;22.50;41.10;;;;;;5037181;28;20522;-47
2023/05/19 12:50:05;;;;;;;4.50;3.37;;;22.70;42.00;;;;;;5041963;28;20466;-48